Time;durP1;ratioP1;P1;durP2;ratioP2;P2;SDS_P1;SDS_P2;PMS_P1;PMS_P2;Temp;Humidity;BMP_temperature;BMP_pressure;BME280_temperature;BME280_humidity;BME280_pressure;Samples;Min_cycle;Max_cycle;Signal;HPM_P1;HPM_P2
2023/11/25 00:00:10;;;;;;;0.70;0.60;;;3.50;99.90;;;;;;5113473;28;20402;-72
2023/11/25 00:02:35;;;;;;;0.70;0.60;;;3.50;99.90;;;;;;5114257;28;20419;-72
2023/11/25 00:05:01;;;;;;;0.90;0.70;;;3.40;99.90;;;;;;5113294;28;20416;-72
2023/11/25 00:07:27;;;;;;;1.10;0.90;;;3.40;99.90;;;;;;5095879;28;20381;-72
2023/11/25 00:09:53;;;;;;;3.67;1.05;;;3.40;99.90;;;;;;5114444;28;20385;-72
2023/11/25 00:12:19;;;;;;;2.10;0.70;;;3.30;99.90;;;;;;5114696;28;20441;-72
2023/11/25 00:14:45;;;;;;;4.60;1.00;;;3.30;99.90;;;;;;5115138;28;20396;-72
2023/11/25 00:17:11;;;;;;;1.20;0.57;;;3.30;99.90;;;;;;5114717;28;20373;-72
2023/11/25 00:19:36;;;;;;;2.78;0.90;;;3.30;99.90;;;;;;5115921;28;20445;-73
2023/11/25 00:22:02;;;;;;;1.73;0.80;;;3.30;99.90;;;;;;5116132;28;20376;-72
2023/11/25 00:24:27;;;;;;;1.73;1.33;;;3.30;99.90;;;;;;5115023;28;20897;-72
2023/11/25 00:26:53;;;;;;;1.80;1.00;;;3.30;99.90;;;;;;5113913;28;20402;-71
2023/11/25 00:29:19;;;;;;;0.70;0.60;;;3.30;99.90;;;;;;5114787;28;20381;-74
2023/11/25 00:31:49;;;;;;;1.90;1.05;;;3.30;99.90;;;;;;5114384;28;20376;-73
2023/11/25 00:34:15;;;;;;;1.30;0.70;;;3.20;99.90;;;;;;5114021;28;20958;-72
2023/11/25 00:36:40;;;;;;;0.70;0.50;;;3.30;99.90;;;;;;5115129;28;20384;-73
2023/11/25 00:39:06;;;;;;;1.50;0.70;;;3.30;99.90;;;;;;5116032;28;20419;-72
2023/11/25 00:41:34;;;;;;;0.88;0.68;;;3.20;99.90;;;;;;5114459;28;20870;-72
2023/11/25 00:43:59;;;;;;;1.77;1.00;;;3.00;99.90;;;;;;5113784;28;20376;-71
2023/11/25 00:46:25;;;;;;;3.00;0.70;;;3.10;99.90;;;;;;5114490;28;20380;-73
2023/11/25 00:48:52;;;;;;;3.40;0.80;;;3.40;99.90;;;;;;5113928;28;20890;-72
2023/11/25 00:51:18;;;;;;;0.70;0.50;;;3.50;99.90;;;;;;5113741;28;20379;-72
2023/11/25 00:53:43;;;;;;;1.30;0.60;;;3.60;99.90;;;;;;5113241;28;20404;-72
2023/11/25 00:56:10;;;;;;;1.70;0.80;;;3.60;99.90;;;;;;5113025;28;20384;-71
2023/11/25 00:58:36;;;;;;;1.30;0.73;;;3.60;99.90;;;;;;5112554;28;20407;-71
2023/11/25 01:01:02;;;;;;;2.10;1.90;;;3.70;99.90;;;;;;5112498;28;20376;-72
2023/11/25 01:03:28;;;;;;;2.50;0.60;;;3.80;99.90;;;;;;5112663;28;20381;-74
2023/11/25 01:05:54;;;;;;;1.80;0.87;;;3.80;99.90;;;;;;5112498;28;20552;-73
2023/11/25 01:08:21;;;;;;;2.00;1.10;;;3.70;99.90;;;;;;5112290;28;20383;-72
2023/11/25 01:10:47;;;;;;;1.40;1.30;;;3.60;99.90;;;;;;5111816;28;20416;-71
2023/11/25 01:13:12;;;;;;;1.10;0.90;;;3.60;99.90;;;;;;5111817;28;20373;-71
2023/11/25 01:15:38;;;;;;;3.30;1.07;;;3.70;99.90;;;;;;5112263;28;20377;-73
2023/11/25 01:18:04;;;;;;;1.00;0.80;;;3.70;99.90;;;;;;5112066;28;20857;-72
2023/11/25 01:20:30;;;;;;;4.30;1.40;;;3.70;99.90;;;;;;5093728;28;20399;-72
2023/11/25 01:22:55;;;;;;;0.80;0.60;;;3.70;99.90;;;;;;5111548;28;20435;-70
2023/11/25 01:25:21;;;;;;;0.90;0.60;;;3.70;99.90;;;;;;5111802;28;20405;-72
2023/11/25 01:27:47;;;;;;;5.50;1.30;;;3.60;99.90;;;;;;5111846;28;20684;-72
2023/11/25 01:30:13;;;;;;;0.80;0.50;;;3.60;99.90;;;;;;5112478;28;20373;-71
2023/11/25 01:32:39;;;;;;;1.80;0.60;;;3.50;99.90;;;;;;5112436;28;20384;-75
2023/11/25 01:35:05;;;;;;;4.72;1.00;;;3.50;99.90;;;;;;5112440;28;20533;-72
2023/11/25 01:37:31;;;;;;;5.20;1.25;;;3.60;99.90;;;;;;5112161;28;20892;-72
2023/11/25 01:39:56;;;;;;;3.80;0.70;;;3.50;99.90;;;;;;5112072;28;20444;-73
2023/11/25 01:42:22;;;;;;;0.80;0.60;;;3.50;99.90;;;;;;5112883;28;20407;-71
2023/11/25 01:44:47;;;;;;;3.83;0.87;;;3.50;99.90;;;;;;5112831;28;20388;-71
2023/11/25 01:47:14;;;;;;;2.40;1.77;;;3.50;99.90;;;;;;5112558;28;20457;-74
2023/11/25 01:49:41;;;;;;;0.80;0.60;;;3.50;99.90;;;;;;5094628;28;20400;-73
2023/11/25 01:52:08;;;;;;;6.70;1.42;;;3.50;99.90;;;;;;5112843;28;20381;-73
2023/11/25 01:54:34;;;;;;;1.30;0.60;;;3.40;99.90;;;;;;5112589;28;20388;-71
2023/11/25 01:57:02;;;;;;;2.00;0.82;;;3.40;99.90;;;;;;5113292;28;20815;-72
2023/11/25 01:59:29;;;;;;;0.90;0.60;;;3.40;99.90;;;;;;5112617;28;20381;-72
2023/11/25 02:01:56;;;;;;;11.80;1.10;;;3.50;99.90;;;;;;5112238;28;20396;-72
2023/11/25 02:04:22;;;;;;;2.90;0.73;;;3.50;99.90;;;;;;5112549;28;20391;-73
2023/11/25 02:06:49;;;;;;;1.10;1.00;;;3.40;99.90;;;;;;5112062;28;20467;-72
2023/11/25 02:09:15;;;;;;;6.85;1.00;;;3.40;99.90;;;;;;5112418;28;20377;-71
2023/11/25 02:11:56;;;;;;;6.10;1.08;;;3.40;99.90;;;;;;5111133;28;20735;-71
2023/11/25 02:14:23;;;;;;;1.40;0.60;;;3.30;99.90;;;;;;5111267;28;20426;-70
2023/11/25 02:16:49;;;;;;;2.10;0.88;;;3.30;99.90;;;;;;5111340;28;20397;-71
2023/11/25 02:19:15;;;;;;;8.50;0.80;;;3.30;99.90;;;;;;5112007;28;20401;-70
2023/11/25 02:21:41;;;;;;;2.45;0.77;;;3.30;99.90;;;;;;5112926;28;20384;-71
2023/11/25 02:24:07;;;;;;;3.15;1.15;;;3.30;99.90;;;;;;5115758;28;20440;-70
2023/11/25 02:26:34;;;;;;;2.70;1.08;;;3.20;99.90;;;;;;5120922;28;20429;-70
2023/11/25 02:29:00;;;;;;;0.80;0.50;;;3.20;99.90;;;;;;5121605;28;20467;-71
2023/11/25 02:31:25;;;;;;;4.18;1.08;;;3.30;99.90;;;;;;5120067;28;20394;-71
2023/11/25 02:33:51;;;;;;;1.30;0.90;;;3.20;99.90;;;;;;5112810;28;20408;-71
2023/11/25 02:36:16;;;;;;;1.20;1.10;;;3.30;99.90;;;;;;5110697;28;20387;-71
2023/11/25 02:38:42;;;;;;;1.53;0.60;;;3.30;99.90;;;;;;5110511;28;20383;-71
2023/11/25 02:41:10;;;;;;;14.53;0.90;;;3.30;99.90;;;;;;5111257;28;20494;-72
2023/11/25 02:43:36;;;;;;;5.30;0.80;;;3.30;99.90;;;;;;5111329;28;20388;-71
2023/11/25 02:46:03;;;;;;;0.80;0.50;;;3.20;99.90;;;;;;5115798;28;20407;-71
2023/11/25 02:48:29;;;;;;;0.90;0.60;;;3.20;99.90;;;;;;5120855;28;20392;-71
2023/11/25 02:50:55;;;;;;;1.50;0.60;;;3.00;99.90;;;;;;5120080;28;20373;-70
2023/11/25 02:53:21;;;;;;;1.70;0.63;;;3.10;99.90;;;;;;5119372;28;20406;-70
2023/11/25 02:55:46;;;;;;;1.00;0.60;;;3.10;99.90;;;;;;5119609;28;20384;-70
2023/11/25 02:58:12;;;;;;;9.00;1.38;;;3.20;99.90;;;;;;5115595;28;20380;-71
2023/11/25 03:00:40;;;;;;;2.50;0.70;;;3.10;99.90;;;;;;5113640;28;20368;-72
2023/11/25 03:03:22;;;;;;;0.80;0.50;;;3.10;99.90;;;;;;5113961;28;20387;-71
2023/11/25 03:05:52;;;;;;;2.20;0.90;;;3.10;99.90;;;;;;5114261;28;20383;-71
2023/11/25 03:08:18;;;;;;;1.90;1.10;;;3.20;99.90;;;;;;5113709;28;20783;-71
2023/11/25 03:10:47;;;;;;;2.00;0.90;;;3.10;99.90;;;;;;5113360;28;20472;-71
2023/11/25 03:13:13;;;;;;;1.20;1.10;;;3.00;99.90;;;;;;5113558;28;20372;-71
2023/11/25 03:15:39;;;;;;;1.20;0.60;;;3.10;99.90;;;;;;5113440;28;20479;-72
2023/11/25 03:18:06;;;;;;;4.40;0.80;;;3.00;99.90;;;;;;5113360;28;20376;-71
2023/11/25 03:20:33;;;;;;;1.50;1.00;;;3.00;99.90;;;;;;5113042;28;20441;-71
2023/11/25 03:23:00;;;;;;;1.90;0.60;;;3.20;99.90;;;;;;5113297;28;20915;-70
2023/11/25 03:25:27;;;;;;;3.60;1.10;;;3.20;99.90;;;;;;5113256;28;20423;-70
2023/11/25 03:27:53;;;;;;;2.40;1.60;;;3.20;99.90;;;;;;5113159;28;20455;-70
2023/11/25 03:30:19;;;;;;;1.10;1.00;;;3.10;99.90;;;;;;5112944;28;20464;-71
2023/11/25 03:32:45;;;;;;;7.10;1.00;;;3.20;99.90;;;;;;5113059;28;21022;-71
2023/11/25 03:35:11;;;;;;;5.80;1.10;;;3.10;99.90;;;;;;5113067;28;20894;-71
2023/11/25 03:37:36;;;;;;;11.40;1.10;;;3.20;99.90;;;;;;5113080;28;20384;-71
2023/11/25 03:40:07;;;;;;;6.90;1.30;;;3.30;99.90;;;;;;5112925;28;20449;-71
2023/11/25 03:42:34;;;;;;;4.25;0.90;;;3.30;99.90;;;;;;5112746;28;20875;-71
2023/11/25 03:45:03;;;;;;;1.50;0.70;;;3.30;99.90;;;;;;5112997;28;20408;-71
2023/11/25 03:47:29;;;;;;;2.00;1.40;;;3.30;99.90;;;;;;5112467;28;20731;-70
2023/11/25 03:49:54;;;;;;;5.90;0.70;;;3.40;99.90;;;;;;5112795;28;20471;-71
2023/11/25 03:52:21;;;;;;;1.00;0.70;;;3.50;99.90;;;;;;5112727;28;20435;-70
2023/11/25 03:54:48;;;;;;;2.20;0.90;;;3.60;99.90;;;;;;5112466;28;20494;-70
2023/11/25 03:57:14;;;;;;;2.00;0.60;;;3.60;99.90;;;;;;5112533;28;20737;-70
2023/11/25 03:59:39;;;;;;;6.10;0.80;;;3.70;99.90;;;;;;5112193;28;20392;-71
2023/11/25 04:02:05;;;;;;;0.90;0.80;;;3.70;99.90;;;;;;5112869;28;20418;-71
2023/11/25 04:04:30;;;;;;;2.37;0.97;;;3.60;99.90;;;;;;5112480;28;20390;-71
2023/11/25 04:06:56;;;;;;;1.30;0.80;;;3.70;99.90;;;;;;5112113;28;20388;-71
2023/11/25 04:09:21;;;;;;;1.60;0.65;;;3.50;99.90;;;;;;5111758;28;20554;-71
2023/11/25 04:11:47;;;;;;;0.98;0.60;;;3.50;99.90;;;;;;5112315;28;20380;-70
2023/11/25 04:14:12;;;;;;;1.30;0.80;;;3.40;99.90;;;;;;5111977;28;20438;-70
2023/11/25 04:16:38;;;;;;;2.25;0.75;;;3.30;99.90;;;;;;5112082;28;20381;-72
2023/11/25 04:19:05;;;;;;;6.05;1.10;;;3.30;99.90;;;;;;5111874;28;20385;-70
2023/11/25 04:21:31;;;;;;;1.20;1.00;;;3.40;99.90;;;;;;5097386;28;20414;-71
2023/11/25 04:23:56;;;;;;;3.90;1.17;;;3.40;99.90;;;;;;5097914;28;20423;-72
2023/11/25 04:26:22;;;;;;;1.00;0.80;;;3.50;99.90;;;;;;5111876;28;20393;-71
2023/11/25 04:28:49;;;;;;;1.20;0.60;;;3.30;99.90;;;;;;5111951;28;20434;-72
2023/11/25 04:31:15;;;;;;;1.50;1.00;;;3.30;99.90;;;;;;5112015;28;20445;-71
2023/11/25 04:33:40;;;;;;;4.30;1.80;;;3.30;99.90;;;;;;5111900;28;20408;-71
2023/11/25 04:36:07;;;;;;;0.88;0.50;;;3.20;99.90;;;;;;5111734;28;20380;-71
2023/11/25 04:38:33;;;;;;;5.20;0.80;;;3.20;99.90;;;;;;5111854;28;20652;-71
2023/11/25 04:40:58;;;;;;;1.70;1.00;;;3.30;99.90;;;;;;5111521;28;20404;-71
2023/11/25 04:43:24;;;;;;;10.90;0.80;;;3.30;99.90;;;;;;5111625;28;20372;-70
2023/11/25 04:45:50;;;;;;;12.70;1.50;;;3.30;99.90;;;;;;5111604;28;20415;-71
2023/11/25 04:48:15;;;;;;;2.00;0.88;;;3.20;99.90;;;;;;5111145;28;20434;-70
2023/11/25 04:50:41;;;;;;;5.40;0.70;;;3.20;99.90;;;;;;5111298;28;20380;-70
2023/11/25 04:53:06;;;;;;;0.80;0.73;;;3.30;99.90;;;;;;5111371;28;20444;-70
2023/11/25 04:55:32;;;;;;;3.20;0.98;;;3.20;99.90;;;;;;5111043;28;20468;-71
2023/11/25 04:57:58;;;;;;;1.53;1.10;;;3.20;99.90;;;;;;5111367;28;20468;-71
2023/11/25 05:00:23;;;;;;;2.20;1.00;;;3.40;99.90;;;;;;5110931;28;20384;-71
2023/11/25 05:02:49;;;;;;;2.30;0.80;;;3.40;99.90;;;;;;5111526;28;20384;-71
2023/11/25 05:05:15;;;;;;;11.55;1.30;;;3.40;99.90;;;;;;5111262;28;20392;-71
2023/11/25 05:07:40;;;;;;;1.20;0.73;;;3.30;99.90;;;;;;5110983;28;20388;-71
2023/11/25 05:10:09;;;;;;;5.20;0.70;;;3.40;99.90;;;;;;5110842;28;20388;-71
2023/11/25 05:12:36;;;;;;;5.30;0.90;;;3.60;99.90;;;;;;5111108;28;20764;-71
2023/11/25 05:15:02;;;;;;;0.80;0.50;;;3.70;99.90;;;;;;5110933;28;20812;-71
2023/11/25 05:17:28;;;;;;;1.67;1.10;;;3.70;99.90;;;;;;5110527;28;20471;-71
2023/11/25 05:19:54;;;;;;;2.00;0.80;;;3.80;99.90;;;;;;5110114;28;20415;-70
2023/11/25 05:22:21;;;;;;;2.10;1.30;;;3.90;99.90;;;;;;5110703;28;20863;-71
2023/11/25 05:24:46;;;;;;;3.40;1.07;;;3.90;99.90;;;;;;5110932;28;20391;-71
2023/11/25 05:27:12;;;;;;;2.10;0.80;;;4.00;99.90;;;;;;5110922;28;20376;-71
2023/11/25 05:29:38;;;;;;;1.30;0.65;;;4.00;99.90;;;;;;5110573;28;20380;-71
2023/11/25 05:32:06;;;;;;;2.40;1.00;;;4.00;99.90;;;;;;5110851;28;20967;-70
2023/11/25 05:34:32;;;;;;;1.77;0.70;;;3.90;99.90;;;;;;5110483;28;20408;-70
2023/11/25 05:36:58;;;;;;;4.00;0.70;;;4.00;99.90;;;;;;5092032;28;20393;-70
2023/11/25 05:39:24;;;;;;;0.80;0.60;;;4.10;99.90;;;;;;5110713;28;20384;-71
2023/11/25 05:41:49;;;;;;;0.80;0.60;;;4.20;99.90;;;;;;5110418;28;20372;-71
2023/11/25 05:44:15;;;;;;;1.20;0.80;;;4.20;99.90;;;;;;5110548;28;20395;-72
2023/11/25 05:46:41;;;;;;;1.00;0.70;;;4.10;99.90;;;;;;5110451;28;20399;-71
2023/11/25 05:49:09;;;;;;;4.60;0.70;;;4.30;99.90;;;;;;5115540;22;20475;-75
2023/11/25 05:51:42;;;;;;;2.00;0.50;;;4.30;99.90;;;;;;5102295;28;20379;-74
2023/11/25 05:54:08;;;;;;;1.23;0.80;;;4.40;99.90;;;;;;5103238;28;20398;-75
2023/11/25 05:56:34;;;;;;;1.63;1.10;;;4.40;99.60;;;;;;5101643;28;20508;-74
2023/11/25 05:59:01;;;;;;;2.60;1.00;;;4.40;93.10;;;;;;5110317;28;20388;-75
2023/11/25 06:01:26;;;;;;;2.20;0.80;;;4.40;94.40;;;;;;5100838;28;20870;-73
2023/11/25 06:03:52;;;;;;;7.70;1.50;;;4.40;96.60;;;;;;5118157;28;20388;-73
2023/11/25 06:06:20;;;;;;;4.70;0.70;;;4.50;93.20;;;;;;5100597;28;20388;-75
2023/11/25 06:08:49;;;;;;;1.08;0.70;;;4.60;89.90;;;;;;5117806;28;20773;-74
2023/11/25 06:11:28;;;;;;;2.40;1.20;;;4.70;87.10;;;;;;5113874;28;20403;-75
2023/11/25 06:13:56;;;;;;;1.45;0.65;;;4.70;86.40;;;;;;5112467;28;20469;-76
2023/11/25 06:16:22;;;;;;;2.80;1.20;;;4.70;85.00;;;;;;5112328;28;20392;-75
2023/11/25 06:18:48;;;;;;;5.95;1.23;;;4.80;84.40;;;;;;5112350;28;20389;-75
2023/11/25 06:21:14;;;;;;;7.10;0.80;;;4.70;84.90;;;;;;5114567;28;20433;-74
2023/11/25 06:23:40;;;;;;;1.30;0.80;;;4.70;86.00;;;;;;5118934;28;20401;-74
2023/11/25 06:26:08;;;;;;;11.90;1.20;;;4.60;86.20;;;;;;5111364;28;20934;-74
2023/11/25 06:28:41;;;;;;;0.90;0.70;;;4.70;85.70;;;;;;5092844;28;20397;-75
2023/11/25 06:31:08;;;;;;;12.40;1.00;;;4.70;86.10;;;;;;5095451;28;20413;-74
2023/11/25 06:33:34;;;;;;;0.82;0.60;;;4.80;82.60;;;;;;5115043;28;20482;-75
2023/11/25 06:35:59;;;;;;;1.50;0.80;;;4.80;83.70;;;;;;5117805;28;20408;-74
2023/11/25 06:38:26;;;;;;;1.70;0.90;;;4.90;81.40;;;;;;5126989;28;20405;-74
2023/11/25 06:40:51;;;;;;;1.60;0.80;;;4.90;80.70;;;;;;5129034;28;20395;-75
2023/11/25 06:43:17;;;;;;;2.63;0.60;;;4.80;80.50;;;;;;5109358;28;20384;-72
2023/11/25 06:45:44;;;;;;;0.90;0.80;;;4.80;80.60;;;;;;5127248;28;20384;-75
2023/11/25 06:48:10;;;;;;;1.00;0.60;;;4.80;79.90;;;;;;5125765;28;20392;-73
2023/11/25 06:50:37;;;;;;;4.10;0.80;;;4.80;77.30;;;;;;5125201;28;20414;-74
2023/11/25 06:53:03;;;;;;;0.90;0.70;;;4.80;76.20;;;;;;5124454;28;20391;-74
2023/11/25 06:55:31;;;;;;;10.68;1.10;;;4.60;78.20;;;;;;5124448;28;20423;-75
2023/11/25 06:57:56;;;;;;;1.98;0.90;;;4.50;80.40;;;;;;5124907;28;20380;-73
2023/11/25 07:00:22;;;;;;;0.80;0.50;;;4.50;81.60;;;;;;5124269;28;20395;-74
2023/11/25 07:02:48;;;;;;;0.80;0.50;;;4.30;84.30;;;;;;5118991;28;20380;-75
2023/11/25 07:05:14;;;;;;;7.33;0.90;;;4.40;83.00;;;;;;5117073;28;20846;-74
2023/11/25 07:07:39;;;;;;;6.50;0.90;;;4.50;84.90;;;;;;5115506;28;20384;-75
2023/11/25 07:10:09;;;;;;;6.88;1.35;;;4.60;83.60;;;;;;5115203;28;20415;-77
2023/11/25 07:12:37;;;;;;;1.20;0.70;;;4.60;81.00;;;;;;5114702;28;20470;-75
2023/11/25 07:15:04;;;;;;;1.00;0.70;;;4.60;81.50;;;;;;5114400;28;20400;-75
2023/11/25 07:17:29;;;;;;;9.35;1.10;;;4.40;80.70;;;;;;5114141;28;20384;-75
2023/11/25 07:19:55;;;;;;;2.50;1.42;;;4.40;81.50;;;;;;5114826;28;20464;-77
2023/11/25 07:22:21;;;;;;;1.20;0.60;;;4.40;82.20;;;;;;5120424;28;20408;-77
2023/11/25 07:24:46;;;;;;;4.20;0.88;;;4.30;83.50;;;;;;5115435;28;20384;-77
2023/11/25 07:27:18;;;;;;;9.20;0.80;;;4.30;86.20;;;;;;5115114;28;20372;-75
2023/11/25 07:29:46;;;;;;;1.23;0.80;;;4.40;82.70;;;;;;5096556;28;20384;-77
2023/11/25 07:32:15;;;;;;;1.48;0.77;;;4.40;83.30;;;;;;5114208;28;20749;-76
2023/11/25 07:34:41;;;;;;;1.10;0.90;;;4.30;86.00;;;;;;5114287;28;20453;-76
2023/11/25 07:37:07;;;;;;;1.50;0.73;;;4.20;86.40;;;;;;5115328;28;20494;-76
2023/11/25 07:39:33;;;;;;;0.80;0.60;;;4.00;91.00;;;;;;5114552;28;20380;-77
2023/11/25 07:42:00;;;;;;;1.20;0.90;;;3.90;95.50;;;;;;5119604;28;20373;-75
2023/11/25 07:44:30;;;;;;;1.10;0.68;;;4.10;90.20;;;;;;5118974;28;20467;-76
2023/11/25 07:46:56;;;;;;;6.70;0.70;;;4.30;88.40;;;;;;5116892;28;20578;-76
2023/11/25 07:49:23;;;;;;;0.80;0.60;;;4.40;87.20;;;;;;5113985;28;20897;-75
2023/11/25 07:51:49;;;;;;;7.38;0.77;;;4.60;84.50;;;;;;5113463;28;20414;-76
2023/11/25 07:54:18;;;;;;;0.80;0.50;;;4.70;82.00;;;;;;5113799;28;20819;-77
2023/11/25 07:56:44;;;;;;;3.00;0.60;;;4.80;80.60;;;;;;5113742;28;20380;-76
2023/11/25 07:59:10;;;;;;;2.50;0.70;;;4.90;79.50;;;;;;5113518;28;20872;-77
2023/11/25 08:01:36;;;;;;;2.10;0.77;;;5.00;76.50;;;;;;5095263;28;20388;-77
2023/11/25 08:04:02;;;;;;;0.80;0.50;;;5.10;74.60;;;;;;5112920;28;20372;-76
2023/11/25 08:06:28;;;;;;;10.10;1.10;;;5.00;76.70;;;;;;5113037;28;20391;-77
2023/11/25 08:08:54;;;;;;;1.52;1.08;;;5.20;74.00;;;;;;5113747;28;20391;-76
2023/11/25 08:11:23;;;;;;;0.80;0.50;;;5.20;73.10;;;;;;5113200;28;20384;-75
2023/11/25 08:13:48;;;;;;;1.00;0.80;;;5.20;73.60;;;;;;5113551;28;20392;-76
2023/11/25 08:16:14;;;;;;;0.90;0.50;;;5.30;71.80;;;;;;5113485;28;20385;-75
2023/11/25 08:18:39;;;;;;;0.80;0.50;;;5.30;70.90;;;;;;5113009;28;20460;-77
2023/11/25 08:21:07;;;;;;;0.80;0.50;;;5.30;71.40;;;;;;5113592;28;20757;-75
2023/11/25 08:23:32;;;;;;;1.60;0.93;;;5.40;71.70;;;;;;5113072;28;20380;-76
2023/11/25 08:25:58;;;;;;;0.80;0.50;;;5.30;72.30;;;;;;5113250;28;20903;-75
2023/11/25 08:28:25;;;;;;;0.80;0.50;;;5.40;71.60;;;;;;5112741;28;20396;-76
2023/11/25 08:30:50;;;;;;;0.80;0.50;;;5.50;69.20;;;;;;5113233;28;20888;-77
2023/11/25 08:33:17;;;;;;;0.80;0.50;;;5.50;71.50;;;;;;5113111;28;20381;-76
2023/11/25 08:35:43;;;;;;;0.80;0.50;;;5.40;74.70;;;;;;5112337;28;20878;-77
2023/11/25 08:38:09;;;;;;;3.00;0.70;;;5.30;78.60;;;;;;5112291;28;20470;-76
2023/11/25 08:40:35;;;;;;;0.90;0.80;;;5.50;76.40;;;;;;5093804;28;20387;-75
2023/11/25 08:43:08;;;;;;;5.90;0.93;;;5.50;74.80;;;;;;5112259;28;20373;-77
2023/11/25 08:45:34;;;;;;;1.60;0.60;;;5.60;72.90;;;;;;5128339;28;20437;-74
2023/11/25 08:48:00;;;;;;;1.90;0.60;;;5.80;72.80;;;;;;5130885;28;20385;-76
2023/11/25 08:50:25;;;;;;;0.80;0.50;;;5.90;70.60;;;;;;5116110;28;20433;-74
2023/11/25 08:52:51;;;;;;;0.80;0.60;;;5.90;69.60;;;;;;5094827;28;20483;-76
2023/11/25 08:55:19;;;;;;;1.60;0.70;;;5.80;71.20;;;;;;5111271;28;20396;-76
2023/11/25 08:57:45;;;;;;;4.50;0.70;;;5.80;71.50;;;;;;5112058;28;20439;-75
2023/11/25 09:00:20;;;;;;;0.80;0.50;;;5.90;70.70;;;;;;5112043;28;20390;-77
2023/11/25 09:02:48;;;;;;;0.80;0.50;;;6.00;71.10;;;;;;5112433;28;20372;-74
2023/11/25 09:05:14;;;;;;;1.30;1.10;;;5.80;79.70;;;;;;5112180;28;20380;-74
2023/11/25 09:07:41;;;;;;;0.80;0.50;;;5.80;78.50;;;;;;5112404;28;20498;-76
2023/11/25 09:10:08;;;;;;;0.80;0.50;;;5.70;73.60;;;;;;5112452;28;20433;-76
2023/11/25 09:12:34;;;;;;;1.70;0.60;;;5.50;79.80;;;;;;5112142;28;20388;-73
2023/11/25 09:15:02;;;;;;;0.80;0.60;;;5.30;84.60;;;;;;5113516;28;20394;-75
2023/11/25 09:17:28;;;;;;;2.70;0.65;;;5.20;83.60;;;;;;5115238;28;20890;-75
2023/11/25 09:19:54;;;;;;;1.30;0.90;;;5.20;82.60;;;;;;5113856;28;20391;-75
2023/11/25 09:22:20;;;;;;;7.47;0.90;;;5.20;84.00;;;;;;5114157;28;20400;-75
2023/11/25 09:24:46;;;;;;;12.20;0.80;;;5.20;84.80;;;;;;5112016;28;20380;-76
2023/11/25 09:27:13;;;;;;;2.40;0.80;;;5.30;81.50;;;;;;5112054;28;20382;-76
2023/11/25 09:29:41;;;;;;;4.45;1.30;;;5.40;86.50;;;;;;5092334;28;20702;-77
2023/11/25 09:32:07;;;;;;;3.70;1.40;;;5.50;79.00;;;;;;5100290;28;20392;-76
2023/11/25 09:34:33;;;;;;;2.60;2.00;;;5.50;80.40;;;;;;5083317;28;20392;-76
2023/11/25 09:36:59;;;;;;;1.00;0.60;;;5.60;81.20;;;;;;5113238;28;20472;-76
2023/11/25 09:39:25;;;;;;;3.05;1.02;;;5.50;78.70;;;;;;5112326;28;20792;-76
2023/11/25 09:41:51;;;;;;;3.73;0.77;;;5.60;79.00;;;;;;5111860;28;20854;-76
2023/11/25 09:44:18;;;;;;;0.90;0.80;;;5.80;76.90;;;;;;5112055;28;20418;-76
2023/11/25 09:46:46;;;;;;;1.20;1.10;;;5.90;79.10;;;;;;5121186;28;20391;-74
2023/11/25 09:49:12;;;;;;;1.60;0.90;;;6.10;79.20;;;;;;5125029;28;20427;-75
2023/11/25 09:51:39;;;;;;;0.90;0.70;;;6.20;72.60;;;;;;5112488;28;20480;-75
2023/11/25 09:54:10;;;;;;;1.08;0.65;;;6.20;74.70;;;;;;5109956;28;20430;-76
2023/11/25 09:56:37;;;;;;;0.80;0.60;;;6.20;76.60;;;;;;5112063;28;20437;-76
2023/11/25 09:59:05;;;;;;;2.60;0.70;;;6.20;72.50;;;;;;5102991;28;20422;-77
2023/11/25 10:01:32;;;;;;;0.80;0.68;;;6.20;74.80;;;;;;5097141;28;20717;-77
2023/11/25 10:03:58;;;;;;;1.00;0.60;;;6.40;69.70;;;;;;5094550;28;20386;-76
2023/11/25 10:06:25;;;;;;;5.10;0.70;;;6.50;72.30;;;;;;5099254;28;20388;-75
2023/11/25 10:08:51;;;;;;;0.80;0.50;;;6.70;67.90;;;;;;5117016;28;20391;-74
2023/11/25 10:11:18;;;;;;;0.80;0.50;;;6.70;65.50;;;;;;5116770;28;20886;-76
2023/11/25 10:13:46;;;;;;;0.80;0.80;;;6.70;67.20;;;;;;5111033;28;20396;-75
2023/11/25 10:16:13;;;;;;;0.80;0.50;;;6.70;64.50;;;;;;5120243;28;20409;-75
2023/11/25 10:18:40;;;;;;;11.90;1.40;;;6.80;63.70;;;;;;5119093;28;20411;-76
2023/11/25 10:21:07;;;;;;;0.80;0.63;;;6.80;62.50;;;;;;5115948;28;20465;-76
2023/11/25 10:23:34;;;;;;;1.50;0.70;;;6.90;63.00;;;;;;5119562;28;20372;-77
2023/11/25 10:26:05;;;;;;;11.30;0.60;;;7.20;62.00;;;;;;5117716;28;20380;-76
2023/11/25 10:28:35;;;;;;;1.77;0.60;;;7.50;59.50;;;;;;5102975;28;20383;-77
2023/11/25 10:31:05;;;;;;;5.90;0.90;;;7.80;56.80;;;;;;5118473;28;20387;-75
2023/11/25 10:33:31;;;;;;;1.10;0.70;;;8.00;55.30;;;;;;5119969;28;20445;-75
2023/11/25 10:35:58;;;;;;;2.53;0.60;;;8.10;53.70;;;;;;5115802;28;20380;-76
2023/11/25 10:38:27;;;;;;;1.92;0.55;;;8.00;53.40;;;;;;5116047;28;20373;-77
2023/11/25 10:41:05;;;;;;;0.80;0.68;;;8.00;53.30;;;;;;5116899;28;20412;-74
2023/11/25 10:43:32;;;;;;;0.80;0.50;;;7.80;54.50;;;;;;5118807;28;20780;-77
2023/11/25 10:46:09;;;;;;;8.20;0.93;;;7.60;56.40;;;;;;5101610;28;20796;-76
2023/11/25 10:48:39;;;;;;;2.75;0.77;;;7.50;55.40;;;;;;5100562;28;20415;-76
2023/11/25 10:51:08;;;;;;;3.30;0.70;;;7.40;57.60;;;;;;5118882;28;20739;-77
2023/11/25 10:53:39;;;;;;;5.70;1.20;;;7.50;57.80;;;;;;5098839;28;20783;-76
2023/11/25 10:56:05;;;;;;;0.80;0.50;;;7.60;57.70;;;;;;5099768;28;20391;-77
2023/11/25 10:58:31;;;;;;;5.30;0.70;;;7.80;56.30;;;;;;5096380;28;20389;-76
2023/11/25 11:00:58;;;;;;;1.20;1.00;;;7.90;54.30;;;;;;5098819;28;20380;-74
2023/11/25 11:03:38;;;;;;;1.00;0.80;;;8.00;54.00;;;;;;5116106;28;20392;-75
2023/11/25 11:06:07;;;;;;;0.98;0.50;;;8.30;52.70;;;;;;5117410;28;20463;-77
2023/11/25 11:08:36;;;;;;;1.00;0.60;;;8.20;48.80;;;;;;5112596;28;20378;-76
2023/11/25 11:11:11;;;;;;;1.20;0.60;;;8.20;50.30;;;;;;5077150;28;20795;-75
2023/11/25 11:13:42;;;;;;;0.80;0.50;;;8.30;51.50;;;;;;5105413;28;20486;-76
2023/11/25 11:16:19;;;;;;;1.20;0.50;;;8.10;49.80;;;;;;5124224;28;20473;-74
2023/11/25 11:18:45;;;;;;;0.80;0.50;;;8.00;52.10;;;;;;5117436;28;20368;-77
2023/11/25 11:21:14;;;;;;;0.80;0.50;;;7.90;52.60;;;;;;5080692;28;20382;-77
2023/11/25 11:23:41;;;;;;;1.42;0.95;;;7.70;52.60;;;;;;5103948;28;20492;-76
2023/11/25 11:26:46;;;;;;;1.48;0.77;;;7.60;58.80;;;;;;5110110;28;20388;-77
2023/11/25 11:29:28;;;;;;;0.80;0.50;;;7.50;60.40;;;;;;5093901;28;20390;-78
2023/11/25 11:32:05;;;;;;;0.80;0.50;;;7.50;61.80;;;;;;5110481;28;20392;-77
2023/11/25 11:34:35;;;;;;;1.40;0.60;;;7.40;61.80;;;;;;5117752;28;20430;-74
2023/11/25 11:37:02;;;;;;;1.10;0.80;;;7.10;68.90;;;;;;5087076;28;20495;-76
2023/11/25 11:39:37;;;;;;;0.80;0.60;;;7.00;70.20;;;;;;5100140;28;20380;-76
2023/11/25 11:42:25;;;;;;;0.90;0.52;;;7.00;69.60;;;;;;5119564;28;20390;-75
2023/11/25 11:44:55;;;;;;;0.80;0.50;;;6.90;72.90;;;;;;5119871;28;20394;-75
2023/11/25 11:47:22;;;;;;;1.90;0.60;;;6.80;74.40;;;;;;5117142;28;20398;-75
2023/11/25 11:49:49;;;;;;;5.10;1.30;;;6.70;77.90;;;;;;5134076;22;20436;-71
2023/11/25 11:52:14;;;;;;;6.70;2.20;;;6.40;67.60;;;;;;5103872;28;20380;-70
2023/11/25 11:54:41;;;;;;;11.65;2.67;;;6.30;71.60;;;;;;5103407;28;20407;-69
2023/11/25 11:57:13;;;;;;;12.60;4.40;;;6.30;74.60;;;;;;5112797;28;20372;-70
2023/11/25 12:00:15;;;;;;;12.10;4.05;;;6.40;81.30;;;;;;5112082;28;20391;-71
2023/11/25 12:02:42;;;;;;;12.20;2.80;;;6.60;77.00;;;;;;5112287;28;20460;-71
2023/11/25 12:05:14;;;;;;;12.00;2.95;;;6.70;73.80;;;;;;5112586;28;20418;-70
2023/11/25 12:07:40;;;;;;;19.00;5.93;;;6.60;73.90;;;;;;5112656;28;20519;-70
2023/11/25 12:10:06;;;;;;;12.23;3.45;;;6.70;78.20;;;;;;5112079;28;20456;-71
2023/11/25 12:12:38;;;;;;;14.00;3.78;;;6.80;77.70;;;;;;5091089;28;20833;-71
2023/11/25 12:15:06;;;;;;;12.43;3.80;;;6.80;82.20;;;;;;5092463;28;20406;-71
2023/11/25 12:17:31;;;;;;;16.70;3.78;;;6.80;83.50;;;;;;5093834;28;20424;-71
2023/11/25 12:19:57;;;;;;;14.02;3.00;;;6.90;82.70;;;;;;5092904;28;20382;-72
2023/11/25 12:22:23;;;;;;;11.18;3.45;;;6.90;83.80;;;;;;5092519;28;20793;-70
2023/11/25 12:24:48;;;;;;;15.87;3.50;;;6.90;83.60;;;;;;5092046;28;20445;-70
2023/11/25 12:27:17;;;;;;;12.93;2.83;;;6.90;82.80;;;;;;5092040;28;20436;-70
2023/11/25 12:29:42;;;;;;;14.85;3.03;;;7.10;78.60;;;;;;5090652;28;20473;-70
2023/11/25 12:32:08;;;;;;;15.80;3.30;;;7.40;74.50;;;;;;5091744;28;20497;-70
2023/11/25 12:34:34;;;;;;;14.10;3.10;;;7.70;75.70;;;;;;5091377;28;20406;-70
2023/11/25 12:37:00;;;;;;;9.00;2.87;;;8.00;67.40;;;;;;5091382;28;20394;-72
2023/11/25 12:39:27;;;;;;;11.10;2.50;;;8.10;63.60;;;;;;5091089;28;20397;-72
2023/11/25 12:41:53;;;;;;;14.55;3.47;;;7.90;65.10;;;;;;5091037;28;20374;-70
2023/11/25 12:44:20;;;;;;;13.63;3.28;;;7.90;67.40;;;;;;5073322;28;20438;-70
2023/11/25 12:47:04;;;;;;;14.60;3.55;;;7.80;64.10;;;;;;5091777;28;20862;-72
2023/11/25 12:49:30;;;;;;;14.20;3.50;;;8.00;64.70;;;;;;5082477;28;20409;-72
2023/11/25 12:51:56;;;;;;;13.90;3.47;;;8.10;64.00;;;;;;5090913;28;20527;-72
2023/11/25 12:54:23;;;;;;;17.10;3.83;;;8.00;62.70;;;;;;5090618;28;20978;-72